Overview Statistics Trail Chart Weather Telemetry Raw packets
 

This is the latest recevied weather packets stored in our database for station/object DL2GPS-3. If no packets are shown the sender has not sent any weather packets the latest 10 day(s).

<< 29 30 31 32 33 34 35 >>
Time Temp. Humidity Pressure Rain* Wind** Luminosity Snow
1788259041 20° C 57% 1026 hPa - - - -
1788258436 19.44° C 58% 1026 hPa - - - -
1788257831 20.56° C 57% 1026 hPa - - - -
1788257226 21.11° C 55% 1026 hPa - - - -
1788256621 21.11° C 57% 1026.1 hPa - - - -
1788256016 20° C 58% 1026.2 hPa - - - -
1788255411 20.56° C 56% 1026.1 hPa - - - -
1788254806 19.44° C 60% 1026.1 hPa - - - -
1788254201 19.44° C 60% 1026.1 hPa - - - -
1788253596 20.56° C 57% 1026.1 hPa - - - -
1788252991 20.56° C 56% 1026 hPa - - - -
1788252386 20° C 59% 1025.9 hPa - - - -
1788251781 20° C 62% 1025.9 hPa - - - -
1788251176 20° C 62% 1025.9 hPa - - - -
1788250571 20° C 60% 1025.8 hPa - - - -
1788249966 20° C 60% 1025.7 hPa - - - -
1788249360 21.67° C 58% 1025.6 hPa - - - -
1788248755 21.11° C 57% 1025.5 hPa - - - -
1788248151 21.67° C 59% 1025.4 hPa - - - -
1788247544 21.67° C 61% 1025.3 hPa - - - -
1788246939 21.67° C 65% 1025.3 hPa - - - -
1788246336 20° C 72% 1025.4 hPa - - - -
1788245730 18.33° C 78% 1025.5 hPa - - - -
1788245125 21.11° C 65% 1025.4 hPa - - - -
1788244520 23.33° C 57% 1025.3 hPa - - - -

* Rain since midnight (hover to see other rain measurements)
** Current wind speed in m/s (hover to see current wind gust speed)